Time;durP1;ratioP1;P1;durP2;ratioP2;P2;SDS_P1;SDS_P2;PMS_P1;PMS_P2;Temp;Humidity;BMP_temperature;BMP_pressure;BME280_temperature;BME280_humidity;BME280_pressure;Samples;Min_cycle;Max_cycle;Signal;HPM_P1;HPM_P2
2022/11/23 00:01:54;;;;;;;11.93;3.08;;;;;;;;;;4897542;29;20037;-60
2022/11/23 00:04:21;;;;;;;5.60;2.25;;;;;;;;;;4897416;29;20040;-60
2022/11/23 00:06:47;;;;;;;9.00;2.55;;;;;;;;;;4896986;29;20041;-60
2022/11/23 00:09:14;;;;;;;7.85;2.20;;;;;;;;;;4896477;29;20036;-59
2022/11/23 00:11:40;;;;;;;10.65;2.40;;;;;;;;;;4897471;29;20048;-60
2022/11/23 00:14:06;;;;;;;11.18;2.78;;;;;;;;;;4897593;29;20393;-60
2022/11/23 00:16:33;;;;;;;8.32;2.72;;;;;;;;;;4911945;29;20052;-60
2022/11/23 00:19:00;;;;;;;10.27;2.17;;;;;;;;;;4910892;29;20056;-60
2022/11/23 00:21:28;;;;;;;6.93;2.30;;;;;;;;;;4896846;29;20049;-60
2022/11/23 00:23:54;;;;;;;5.05;2.10;;;;;;;;;;4895892;29;20053;-60
2022/11/23 00:26:21;;;;;;;15.40;3.13;;;;;;;;;;4897369;29;20047;-60
2022/11/23 00:28:47;;;;;;;8.63;2.33;;;;;;;;;;4896800;29;20044;-60
2022/11/23 00:31:16;;;;;;;6.70;2.13;;;;;;;;;;4897166;29;20044;-60
2022/11/23 00:33:46;;;;;;;11.13;2.33;;;;;;;;;;4896269;29;20049;-59
2022/11/23 00:36:14;;;;;;;9.75;2.60;;;;;;;;;;4895813;29;20052;-60
2022/11/23 00:38:41;;;;;;;7.82;2.80;;;;;;;;;;4900486;29;20064;-60
2022/11/23 00:41:15;;;;;;;10.40;2.25;;;;;;;;;;4900258;29;20051;-60
2022/11/23 00:43:42;;;;;;;10.25;2.65;;;;;;;;;;4897160;29;20044;-59
2022/11/23 00:46:22;;;;;;;11.68;2.88;;;;;;;;;;4911658;29;20482;-59
2022/11/23 00:48:49;;;;;;;7.97;2.35;;;;;;;;;;4896355;29;20265;-60
2022/11/23 00:51:17;;;;;;;8.95;2.40;;;;;;;;;;4897147;29;20126;-60
2022/11/23 00:53:43;;;;;;;9.40;2.63;;;;;;;;;;4896979;29;20418;-60
2022/11/23 00:56:10;;;;;;;12.38;2.45;;;;;;;;;;4897625;29;20055;-60
2022/11/23 00:58:39;;;;;;;10.48;2.70;;;;;;;;;;4885198;29;20096;-62
2022/11/23 01:01:07;;;;;;;6.97;2.35;;;;;;;;;;4904013;29;20045;-60
2022/11/23 01:03:34;;;;;;;7.60;2.42;;;;;;;;;;4901603;29;20506;-60
2022/11/23 01:06:01;;;;;;;9.82;2.65;;;;;;;;;;4903008;29;20068;-60
2022/11/23 01:08:27;;;;;;;9.50;2.30;;;;;;;;;;4903262;29;20060;-63
2022/11/23 01:10:57;;;;;;;7.85;2.00;;;;;;;;;;4905329;29;20064;-60
2022/11/23 01:13:24;;;;;;;6.07;2.08;;;;;;;;;;4921742;29;20052;-60
2022/11/23 01:15:50;;;;;;;14.25;2.65;;;;;;;;;;4901718;29;20636;-59
2022/11/23 01:18:18;;;;;;;10.45;2.83;;;;;;;;;;4915591;29;20040;-60
2022/11/23 01:20:44;;;;;;;7.93;2.47;;;;;;;;;;4901730;29;20446;-60
2022/11/23 01:23:10;;;;;;;10.38;2.40;;;;;;;;;;4915748;29;20069;-60
2022/11/23 01:25:39;;;;;;;8.85;3.08;;;;;;;;;;4900212;29;20557;-60
2022/11/23 01:28:06;;;;;;;8.60;2.17;;;;;;;;;;4899358;29;20049;-59
2022/11/23 01:30:33;;;;;;;8.20;2.65;;;;;;;;;;4899416;29;20044;-59
2022/11/23 01:32:59;;;;;;;11.98;1.95;;;;;;;;;;4899408;29;20055;-60
2022/11/23 01:35:26;;;;;;;11.88;2.50;;;;;;;;;;4901167;29;20052;-60
2022/11/23 01:37:53;;;;;;;12.48;2.92;;;;;;;;;;4898767;29;20498;-60
2022/11/23 01:40:19;;;;;;;10.23;2.58;;;;;;;;;;4900672;29;20055;-62
2022/11/23 01:42:56;;;;;;;9.57;2.50;;;;;;;;;;4900893;29;20089;-59
2022/11/23 01:45:36;;;;;;;9.63;2.40;;;;;;;;;;4901294;29;20052;-60
2022/11/23 01:48:06;;;;;;;8.98;2.58;;;;;;;;;;4900985;29;20051;-60
2022/11/23 01:50:33;;;;;;;9.70;2.75;;;;;;;;;;4916070;29;20045;-62
2022/11/23 01:52:59;;;;;;;9.25;2.35;;;;;;;;;;4901336;29;20040;-61
2022/11/23 01:55:26;;;;;;;10.25;2.72;;;;;;;;;;4918298;29;20065;-61
2022/11/23 01:57:53;;;;;;;11.65;2.38;;;;;;;;;;4906620;29;20067;-61
2022/11/23 02:00:21;;;;;;;11.50;2.58;;;;;;;;;;4906457;29;20052;-61
2022/11/23 02:02:52;;;;;;;8.90;2.40;;;;;;;;;;4908927;29;20045;-61
2022/11/23 02:05:20;;;;;;;12.27;2.20;;;;;;;;;;4923835;29;20073;-60
2022/11/23 02:07:48;;;;;;;10.23;2.53;;;;;;;;;;4908054;29;20060;-61
2022/11/23 02:10:15;;;;;;;10.90;2.72;;;;;;;;;;4911439;29;20450;-61
2022/11/23 02:12:41;;;;;;;12.52;2.58;;;;;;;;;;4922550;29;20097;-60
2022/11/23 02:15:10;;;;;;;8.20;1.90;;;;;;;;;;4889603;29;20104;-61
2022/11/23 02:17:37;;;;;;;12.35;2.78;;;;;;;;;;4922057;29;20066;-60
2022/11/23 02:20:09;;;;;;;11.15;2.40;;;;;;;;;;4922926;29;20048;-60
2022/11/23 02:22:54;;;;;;;7.57;2.53;;;;;;;;;;4907207;29;20048;-61
2022/11/23 02:25:46;;;;;;;13.98;2.60;;;;;;;;;;4923174;29;20044;-60
2022/11/23 02:28:20;;;;;;;9.63;2.40;;;;;;;;;;4898688;29;20079;-60
2022/11/23 02:30:48;;;;;;;10.85;2.63;;;;;;;;;;4906831;29;20064;-60
2022/11/23 02:33:14;;;;;;;8.02;3.88;;;;;;;;;;4920023;29;20052;-61
2022/11/23 02:35:51;;;;;;;13.00;4.72;;;;;;;;;;4904171;29;20090;-60
2022/11/23 02:38:18;;;;;;;12.68;3.75;;;;;;;;;;4900620;29;20059;-60
2022/11/23 02:40:44;;;;;;;9.45;4.07;;;;;;;;;;4902756;29;20053;-60
2022/11/23 02:43:12;;;;;;;14.63;5.07;;;;;;;;;;4902679;29;20048;-60
2022/11/23 02:45:42;;;;;;;15.23;5.68;;;;;;;;;;4904282;29;20033;-60
2022/11/23 02:48:08;;;;;;;10.05;3.53;;;;;;;;;;4903141;29;20069;-60
2022/11/23 02:50:37;;;;;;;13.85;3.58;;;;;;;;;;4887572;29;20032;-61
2022/11/23 02:53:05;;;;;;;9.90;2.97;;;;;;;;;;4917020;29;20048;-60
2022/11/23 02:55:31;;;;;;;7.88;2.70;;;;;;;;;;4915518;29;20060;-59
2022/11/23 02:57:59;;;;;;;15.63;3.33;;;;;;;;;;4912584;29;20041;-60
2022/11/23 03:00:26;;;;;;;12.00;3.10;;;;;;;;;;4913518;29;20445;-60
2022/11/23 03:02:53;;;;;;;10.35;2.95;;;;;;;;;;4897781;29;20045;-60
2022/11/23 03:05:20;;;;;;;9.32;2.72;;;;;;;;;;4914034;29;20573;-60
2022/11/23 03:07:50;;;;;;;6.85;2.30;;;;;;;;;;4898528;29;20039;-60
2022/11/23 03:10:18;;;;;;;9.55;2.30;;;;;;;;;;4897390;29;20413;-59
2022/11/23 03:12:47;;;;;;;11.77;3.10;;;;;;;;;;4897224;29;20144;-60
2022/11/23 03:15:14;;;;;;;15.40;2.90;;;;;;;;;;4912783;29;20565;-60
2022/11/23 03:17:40;;;;;;;10.93;2.47;;;;;;;;;;4912482;29;20495;-59
2022/11/23 03:20:10;;;;;;;8.77;2.88;;;;;;;;;;4898227;29;20057;-60
2022/11/23 03:22:40;;;;;;;11.02;2.72;;;;;;;;;;4914831;29;20041;-60
2022/11/23 03:25:09;;;;;;;17.80;3.35;;;;;;;;;;4897648;29;20148;-60
2022/11/23 03:27:37;;;;;;;11.18;2.38;;;;;;;;;;4897529;29;20084;-60
2022/11/23 03:30:06;;;;;;;9.27;2.80;;;;;;;;;;4898037;29;20152;-60
2022/11/23 03:32:34;;;;;;;9.32;2.50;;;;;;;;;;4913197;29;20056;-59
2022/11/23 03:35:02;;;;;;;7.32;2.95;;;;;;;;;;4898091;29;20108;-60
2022/11/23 03:37:29;;;;;;;7.47;2.28;;;;;;;;;;4915410;29;20048;-60
2022/11/23 03:39:55;;;;;;;12.85;3.22;;;;;;;;;;4914955;29;20069;-60
2022/11/23 03:42:40;;;;;;;10.85;2.58;;;;;;;;;;4899068;29;20104;-60
2022/11/23 03:45:08;;;;;;;9.07;2.55;;;;;;;;;;4913931;29;20501;-60
2022/11/23 03:47:34;;;;;;;9.25;2.55;;;;;;;;;;4913123;29;20488;-60
2022/11/23 03:50:01;;;;;;;8.05;2.60;;;;;;;;;;4899380;29;20048;-60
2022/11/23 03:52:30;;;;;;;4.72;2.53;;;;;;;;;;4897727;29;20112;-60
2022/11/23 03:54:57;;;;;;;8.90;3.00;;;;;;;;;;4901044;29;20050;-61
2022/11/23 03:57:23;;;;;;;8.27;2.15;;;;;;;;;;4900868;29;20056;-61
2022/11/23 03:59:50;;;;;;;16.08;3.15;;;;;;;;;;4917771;29;20143;-59
2022/11/23 04:02:16;;;;;;;8.50;2.22;;;;;;;;;;4889932;29;20049;-61
2022/11/23 04:04:50;;;;;;;10.73;2.55;;;;;;;;;;4914673;29;20049;-60
2022/11/23 04:07:42;;;;;;;10.60;2.47;;;;;;;;;;4898600;29;20410;-60
2022/11/23 04:10:09;;;;;;;12.85;3.35;;;;;;;;;;4897561;29;20115;-60
2022/11/23 04:12:58;;;;;;;10.75;2.45;;;;;;;;;;4893342;29;20167;-60
2022/11/23 04:15:26;;;;;;;6.40;2.13;;;;;;;;;;4897456;29;20059;-60
2022/11/23 04:17:53;;;;;;;9.80;3.35;;;;;;;;;;4915639;29;20068;-61
2022/11/23 04:20:20;;;;;;;5.47;2.17;;;;;;;;;;4897695;29;20060;-59
2022/11/23 04:22:47;;;;;;;10.00;2.17;;;;;;;;;;4911648;29;20044;-59
2022/11/23 04:25:13;;;;;;;12.07;2.42;;;;;;;;;;4897337;29;20040;-60
2022/11/23 04:27:40;;;;;;;9.70;2.17;;;;;;;;;;4912760;29;20058;-60
2022/11/23 04:30:08;;;;;;;6.53;2.00;;;;;;;;;;4912688;29;20056;-61
2022/11/23 04:32:35;;;;;;;7.55;2.25;;;;;;;;;;4899035;29;20513;-61
2022/11/23 04:35:03;;;;;;;6.80;2.42;;;;;;;;;;4885585;29;20048;-60
2022/11/23 04:37:30;;;;;;;9.77;2.45;;;;;;;;;;4901548;29;20398;-61
2022/11/23 04:39:57;;;;;;;9.80;2.58;;;;;;;;;;4901006;29;20053;-60
2022/11/23 04:42:44;;;;;;;7.03;2.10;;;;;;;;;;4901961;29;20052;-60
2022/11/23 04:45:10;;;;;;;9.60;2.35;;;;;;;;;;4902148;29;20045;-60
2022/11/23 04:47:37;;;;;;;8.95;2.45;;;;;;;;;;4916341;29;20127;-61
2022/11/23 04:50:10;;;;;;;9.27;2.00;;;;;;;;;;4917069;29;20079;-60
2022/11/23 04:52:36;;;;;;;5.38;1.80;;;;;;;;;;4901821;29;20056;-60
2022/11/23 04:55:07;;;;;;;12.45;2.75;;;;;;;;;;4917015;29;20087;-60
2022/11/23 04:57:39;;;;;;;10.80;3.20;;;;;;;;;;4901554;29;20127;-61
2022/11/23 05:02:59;;;;;;;12.48;2.63;;;;;;;;;;5157445;23;20052;-60
2022/11/23 05:05:29;;;;;;;7.57;2.10;;;;;;;;;;4902632;29;20048;-60
2022/11/23 05:07:57;;;;;;;8.48;2.42;;;;;;;;;;4917490;29;20044;-60
2022/11/23 05:10:35;;;;;;;8.70;2.42;;;;;;;;;;4919245;29;20044;-60
2022/11/23 05:13:03;;;;;;;8.07;3.00;;;;;;;;;;4887662;29;20059;-61
2022/11/23 05:15:29;;;;;;;7.40;2.15;;;;;;;;;;4915043;29;20059;-60
2022/11/23 05:18:05;;;;;;;5.20;2.15;;;;;;;;;;4899265;29;20481;-60
2022/11/23 05:20:32;;;;;;;7.93;2.35;;;;;;;;;;4900182;29;20147;-60
2022/11/23 05:22:59;;;;;;;9.48;3.22;;;;;;;;;;4899929;29;20084;-60
2022/11/23 05:25:27;;;;;;;12.40;2.65;;;;;;;;;;4899821;29;20048;-61
2022/11/23 05:27:59;;;;;;;8.77;2.40;;;;;;;;;;4899741;29;20044;-60
2022/11/23 05:30:46;;;;;;;10.52;2.60;;;;;;;;;;4899227;29;20408;-60
2022/11/23 05:33:13;;;;;;;8.32;2.05;;;;;;;;;;4900053;29;20052;-61
2022/11/23 05:35:41;;;;;;;13.35;3.35;;;;;;;;;;4915400;29;20052;-60
2022/11/23 05:38:07;;;;;;;6.53;2.40;;;;;;;;;;4899262;29;20045;-60
2022/11/23 05:40:34;;;;;;;9.45;2.05;;;;;;;;;;4899690;29;20049;-60
2022/11/23 05:43:02;;;;;;;9.45;1.95;;;;;;;;;;4912555;29;20044;-60
2022/11/23 05:45:29;;;;;;;12.13;2.85;;;;;;;;;;4913533;29;20425;-61
2022/11/23 05:47:58;;;;;;;11.27;2.75;;;;;;;;;;4897874;29;20044;-60
2022/11/23 05:50:43;;;;;;;11.38;2.83;;;;;;;;;;4897905;29;20412;-60
2022/11/23 05:53:23;;;;;;;6.55;2.20;;;;;;;;;;4897659;29;20484;-60
2022/11/23 05:56:00;;;;;;;7.88;2.58;;;;;;;;;;4913546;29;20139;-61
2022/11/23 05:58:28;;;;;;;8.88;2.70;;;;;;;;;;4897959;29;20061;-60
2022/11/23 06:00:58;;;;;;;7.72;2.30;;;;;;;;;;4897739;29;20592;-60
2022/11/23 06:03:28;;;;;;;3.85;2.00;;;;;;;;;;4913279;29;20045;-60
2022/11/23 06:05:55;;;;;;;8.60;2.28;;;;;;;;;;4897532;29;20052;-61
2022/11/23 06:08:28;;;;;;;8.30;2.40;;;;;;;;;;4912766;29;20049;-61
2022/11/23 06:10:59;;;;;;;8.20;2.28;;;;;;;;;;4898980;29;20123;-60
2022/11/23 06:13:26;;;;;;;11.15;3.58;;;;;;;;;;4898061;29;20375;-61
2022/11/23 06:15:52;;;;;;;11.40;2.53;;;;;;;;;;4898813;29;20532;-61
2022/11/23 06:18:24;;;;;;;6.55;2.08;;;;;;;;;;4896767;29;20479;-61
2022/11/23 06:20:51;;;;;;;11.23;4.85;;;;;;;;;;4898535;29;20044;-61
2022/11/23 06:23:17;;;;;;;9.02;3.00;;;;;;;;;;4897223;29;20045;-60
2022/11/23 06:25:44;;;;;;;11.32;2.50;;;;;;;;;;4898508;29;20044;-61
2022/11/23 06:28:19;;;;;;;14.43;4.45;;;;;;;;;;4896745;29;20048;-61
2022/11/23 06:30:47;;;;;;;12.48;2.60;;;;;;;;;;4897187;29;20040;-61
2022/11/23 06:33:14;;;;;;;7.97;2.20;;;;;;;;;;4896939;29;20452;-61
2022/11/23 06:35:57;;;;;;;9.55;2.78;;;;;;;;;;4897267;29;20059;-60
2022/11/23 06:38:28;;;;;;;10.48;2.22;;;;;;;;;;4896602;29;20505;-61
2022/11/23 06:41:01;;;;;;;6.43;1.77;;;;;;;;;;4897047;29;20049;-61
2022/11/23 06:43:29;;;;;;;8.07;2.83;;;;;;;;;;4896705;29;20044;-61
2022/11/23 06:45:56;;;;;;;9.40;1.90;;;;;;;;;;4912251;29;20044;-60
2022/11/23 06:48:26;;;;;;;6.57;1.90;;;;;;;;;;4911746;29;20032;-61
2022/11/23 06:50:57;;;;;;;10.15;2.10;;;;;;;;;;4911978;29;20045;-61
2022/11/23 06:53:24;;;;;;;7.30;2.03;;;;;;;;;;4897538;29;20056;-61
2022/11/23 06:55:59;;;;;;;7.13;2.42;;;;;;;;;;4896783;29;20131;-61
2022/11/23 06:58:27;;;;;;;10.20;2.28;;;;;;;;;;4880694;29;20458;-61
2022/11/23 07:00:53;;;;;;;8.25;2.13;;;;;;;;;;4896700;29;20102;-61
2022/11/23 07:03:23;;;;;;;7.07;2.00;;;;;;;;;;4895959;29;20052;-60
2022/11/23 07:06:03;;;;;;;5.47;2.00;;;;;;;;;;4896227;29;20044;-60
2022/11/23 07:08:29;;;;;;;8.98;2.38;;;;;;;;;;4896643;29;20049;-61
2022/11/23 07:11:01;;;;;;;7.78;2.60;;;;;;;;;;4895948;29;20290;-60
2022/11/23 07:13:28;;;;;;;9.23;2.42;;;;;;;;;;4896066;29;20044;-60
2022/11/23 07:15:56;;;;;;;6.63;2.08;;;;;;;;;;4896379;29;20068;-61
2022/11/23 07:18:23;;;;;;;10.85;2.78;;;;;;;;;;4911397;29;20632;-60
2022/11/23 07:20:58;;;;;;;7.05;2.17;;;;;;;;;;4911968;29;20064;-60
2022/11/23 07:23:24;;;;;;;8.05;2.20;;;;;;;;;;4896083;29;20045;-60
2022/11/23 07:25:51;;;;;;;9.52;2.38;;;;;;;;;;4911739;29;20400;-61
2022/11/23 07:28:18;;;;;;;10.98;2.13;;;;;;;;;;4911148;29;20065;-60
2022/11/23 07:30:45;;;;;;;9.45;2.70;;;;;;;;;;4896241;29;20055;-60
2022/11/23 07:33:13;;;;;;;14.57;3.17;;;;;;;;;;4911896;29;20072;-61
2022/11/23 07:35:40;;;;;;;7.95;3.05;;;;;;;;;;4911631;29;20044;-60
2022/11/23 07:38:07;;;;;;;20.75;5.10;;;;;;;;;;4895329;29;20059;-60
2022/11/23 07:40:35;;;;;;;7.90;2.72;;;;;;;;;;4896407;29;20125;-61
2022/11/23 07:43:03;;;;;;;5.60;2.65;;;;;;;;;;4897120;29;20047;-60
2022/11/23 07:45:29;;;;;;;10.60;3.35;;;;;;;;;;4896488;29;20092;-62
2022/11/23 07:47:59;;;;;;;7.90;2.83;;;;;;;;;;4911431;29;20063;-60
2022/11/23 07:50:25;;;;;;;8.88;2.60;;;;;;;;;;4896634;29;20100;-60
2022/11/23 07:52:52;;;;;;;9.05;2.83;;;;;;;;;;4895806;29;20044;-61
2022/11/23 07:55:18;;;;;;;7.15;2.65;;;;;;;;;;4896950;29;20044;-60
2022/11/23 07:57:45;;;;;;;13.90;3.15;;;;;;;;;;4896295;29;20502;-62
2022/11/23 08:00:11;;;;;;;8.95;2.60;;;;;;;;;;4895767;29;20112;-62
2022/11/23 08:02:38;;;;;;;11.05;2.90;;;;;;;;;;4895342;29;20048;-61
2022/11/23 08:05:25;;;;;;;9.90;2.50;;;;;;;;;;4896678;29;20135;-61
2022/11/23 08:07:56;;;;;;;6.50;2.17;;;;;;;;;;4895191;29;20054;-61
2022/11/23 08:10:23;;;;;;;9.88;2.70;;;;;;;;;;4897198;29;20100;-61
2022/11/23 08:12:50;;;;;;;13.18;2.95;;;;;;;;;;4896744;29;20059;-61
2022/11/23 08:15:16;;;;;;;10.55;2.80;;;;;;;;;;4895636;29;20052;-60
2022/11/23 08:17:42;;;;;;;6.85;3.22;;;;;;;;;;4895121;29;20319;-60
2022/11/23 08:20:09;;;;;;;11.15;4.68;;;;;;;;;;4896800;29;20056;-61
2022/11/23 08:22:36;;;;;;;8.88;3.75;;;;;;;;;;4911202;29;20175;-61
2022/11/23 08:25:02;;;;;;;9.05;3.50;;;;;;;;;;4896601;29;20515;-61
2022/11/23 08:27:28;;;;;;;8.38;2.78;;;;;;;;;;4894929;29;20045;-59
2022/11/23 08:29:55;;;;;;;8.48;2.97;;;;;;;;;;4895669;29;20048;-59
2022/11/23 08:32:21;;;;;;;11.25;2.63;;;;;;;;;;4896672;29;20044;-59
2022/11/23 08:34:48;;;;;;;6.97;2.80;;;;;;;;;;4880053;29;20517;-60
2022/11/23 08:37:14;;;;;;;13.07;3.97;;;;;;;;;;4879813;29;20045;-60
2022/11/23 08:39:41;;;;;;;13.70;3.47;;;;;;;;;;4895192;29;20060;-60
2022/11/23 08:42:07;;;;;;;8.80;2.88;;;;;;;;;;4896443;29;20040;-61
2022/11/23 08:44:34;;;;;;;8.38;2.25;;;;;;;;;;4896452;29;20045;-60
2022/11/23 08:47:01;;;;;;;12.15;2.58;;;;;;;;;;4895700;29;20055;-60
2022/11/23 08:49:27;;;;;;;7.03;1.88;;;;;;;;;;4896141;29;20044;-61
2022/11/23 08:51:54;;;;;;;6.60;2.25;;;;;;;;;;4896742;29;20048;-62
2022/11/23 08:54:23;;;;;;;7.60;2.13;;;;;;;;;;4896524;29;20041;-61
2022/11/23 08:56:50;;;;;;;8.15;2.25;;;;;;;;;;4896442;29;20054;-62
2022/11/23 08:59:16;;;;;;;7.10;2.28;;;;;;;;;;4896326;29;20041;-61
2022/11/23 09:01:43;;;;;;;7.38;2.30;;;;;;;;;;4895260;29;20053;-61
2022/11/23 09:04:10;;;;;;;12.75;2.50;;;;;;;;;;4895054;29;20056;-61
2022/11/23 09:06:41;;;;;;;6.88;2.15;;;;;;;;;;4896707;29;20087;-61
2022/11/23 09:09:08;;;;;;;5.85;1.65;;;;;;;;;;4910243;29;20033;-61
2022/11/23 09:11:34;;;;;;;6.60;1.75;;;;;;;;;;4896455;29;20100;-63
2022/11/23 09:16:56;;;;;;;6.40;1.73;;;;;;;;;;5039105;23;20065;-64
2022/11/23 09:19:22;;;;;;;6.43;2.20;;;;;;;;;;4893655;29;20049;-66
2022/11/23 09:21:49;;;;;;;9.85;1.70;;;;;;;;;;4897900;29;20069;-64
2022/11/23 09:24:15;;;;;;;7.40;1.85;;;;;;;;;;4898154;29;20051;-64
2022/11/23 09:26:41;;;;;;;8.07;2.15;;;;;;;;;;4899805;29;20054;-64
2022/11/23 09:29:08;;;;;;;8.70;2.15;;;;;;;;;;4897594;29;20183;-64
2022/11/23 09:31:34;;;;;;;6.97;1.75;;;;;;;;;;4896368;29;20080;-65
2022/11/23 09:34:00;;;;;;;5.85;1.83;;;;;;;;;;4898273;29;20466;-65
2022/11/23 09:36:28;;;;;;;5.85;1.70;;;;;;;;;;4897940;29;20051;-65
2022/11/23 09:38:54;;;;;;;9.50;2.10;;;;;;;;;;4882744;29;20147;-65
2022/11/23 09:41:32;;;;;;;10.23;1.77;;;;;;;;;;4913713;29;20489;-65
2022/11/23 09:44:03;;;;;;;5.85;2.45;;;;;;;;;;4899287;29;20080;-65
2022/11/23 09:46:30;;;;;;;8.95;2.08;;;;;;;;;;4898362;29;20190;-65
2022/11/23 09:49:02;;;;;;;6.20;2.28;;;;;;;;;;4899329;29;20051;-65
2022/11/23 09:51:28;;;;;;;5.90;2.30;;;;;;;;;;4899436;29;20049;-65
2022/11/23 09:53:56;;;;;;;5.63;2.40;;;;;;;;;;4899219;29;20476;-64
2022/11/23 09:56:27;;;;;;;6.55;2.03;;;;;;;;;;4898806;29;20496;-65
2022/11/23 09:58:55;;;;;;;6.30;1.80;;;;;;;;;;4899126;29;20135;-65
2022/11/23 10:01:21;;;;;;;5.95;1.88;;;;;;;;;;4898984;29;20112;-64
2022/11/23 10:03:48;;;;;;;7.95;2.10;;;;;;;;;;4897910;29;20049;-64
2022/11/23 10:06:24;;;;;;;10.52;2.20;;;;;;;;;;4897520;29;20466;-64
2022/11/23 10:08:57;;;;;;;5.70;1.98;;;;;;;;;;4897753;29;20045;-65
2022/11/23 10:11:42;;;;;;;6.67;1.77;;;;;;;;;;4913433;29;20080;-65
2022/11/23 10:14:18;;;;;;;10.43;2.00;;;;;;;;;;4899104;29;20697;-64
2022/11/23 10:16:48;;;;;;;5.45;1.27;;;;;;;;;;4898074;29;20462;-64
2022/11/23 10:19:24;;;;;;;5.32;1.73;;;;;;;;;;4898963;29;20104;-64
2022/11/23 10:21:53;;;;;;;7.65;2.00;;;;;;;;;;4899456;29;20449;-64
2022/11/23 10:24:24;;;;;;;8.75;2.13;;;;;;;;;;4899315;29;20044;-64
2022/11/23 10:26:50;;;;;;;7.43;1.60;;;;;;;;;;4912949;29;20143;-65
2022/11/23 10:29:30;;;;;;;5.30;2.10;;;;;;;;;;4898170;29;20124;-64
2022/11/23 10:31:57;;;;;;;8.00;1.58;;;;;;;;;;4899006;29;20040;-64
2022/11/23 10:34:42;;;;;;;8.25;1.80;;;;;;;;;;4898809;29;20059;-62
2022/11/23 10:37:10;;;;;;;3.72;1.52;;;;;;;;;;4912824;29;20498;-62
2022/11/23 10:39:37;;;;;;;7.25;1.70;;;;;;;;;;4897198;29;20109;-63
2022/11/23 10:42:11;;;;;;;4.90;1.40;;;;;;;;;;4898447;29;20493;-65
2022/11/23 10:44:37;;;;;;;7.10;1.85;;;;;;;;;;4898206;29;20083;-65
2022/11/23 10:47:04;;;;;;;7.63;1.70;;;;;;;;;;4897818;29;20045;-64
2022/11/23 10:49:32;;;;;;;6.32;1.63;;;;;;;;;;4898794;29;20494;-65
2022/11/23 10:52:04;;;;;;;7.88;1.55;;;;;;;;;;4898669;29;20127;-64
2022/11/23 10:54:35;;;;;;;11.68;2.15;;;;;;;;;;4898532;29;20085;-65
2022/11/23 10:57:20;;;;;;;6.03;1.55;;;;;;;;;;4897474;29;20044;-65
2022/11/23 10:59:56;;;;;;;4.25;1.50;;;;;;;;;;4898130;29;20422;-65
2022/11/23 11:02:22;;;;;;;4.30;1.30;;;;;;;;;;4912544;29;20084;-65
2022/11/23 11:04:49;;;;;;;6.43;2.35;;;;;;;;;;4898335;29;20467;-65
2022/11/23 11:07:25;;;;;;;6.28;2.13;;;;;;;;;;4896425;29;20049;-65
2022/11/23 11:09:53;;;;;;;4.03;1.55;;;;;;;;;;4897969;29;20115;-65
2022/11/23 11:12:19;;;;;;;7.07;2.03;;;;;;;;;;4898222;29;20489;-65
2022/11/23 11:14:56;;;;;;;6.90;1.30;;;;;;;;;;4898095;29;20056;-65
2022/11/23 11:17:38;;;;;;;6.18;1.52;;;;;;;;;;4896924;29;20080;-65
2022/11/23 11:20:23;;;;;;;4.55;1.30;;;;;;;;;;4881687;29;20067;-65
2022/11/23 11:22:49;;;;;;;6.28;2.15;;;;;;;;;;4898063;29;20089;-65
2022/11/23 11:25:26;;;;;;;5.80;1.40;;;;;;;;;;4896871;29;20079;-65
2022/11/23 11:27:52;;;;;;;3.42;1.55;;;;;;;;;;4897739;29;20068;-65
2022/11/23 11:30:19;;;;;;;5.07;1.83;;;;;;;;;;4896412;29;20104;-65
2022/11/23 11:32:51;;;;;;;9.77;2.13;;;;;;;;;;4898807;29;20049;-65
2022/11/23 11:35:47;;;;;;;5.80;1.85;;;;;;;;;;4897999;29;20111;-65
2022/11/23 11:38:32;;;;;;;6.43;1.92;;;;;;;;;;4884496;29;20076;-65
2022/11/23 11:41:01;;;;;;;5.38;1.73;;;;;;;;;;4896479;29;20088;-65
2022/11/23 11:43:31;;;;;;;6.43;1.63;;;;;;;;;;4897350;29;20565;-65
2022/11/23 11:46:11;;;;;;;5.40;1.80;;;;;;;;;;4896565;29;20050;-65
2022/11/23 11:48:56;;;;;;;5.30;1.52;;;;;;;;;;4897448;29;20037;-66
2022/11/23 11:51:24;;;;;;;5.72;1.83;;;;;;;;;;4897288;29;20048;-65
2022/11/23 11:53:57;;;;;;;8.55;1.92;;;;;;;;;;4897241;29;20068;-65
2022/11/23 11:56:27;;;;;;;6.38;1.98;;;;;;;;;;4896994;29;20080;-65
2022/11/23 11:59:11;;;;;;;8.10;2.42;;;;;;;;;;4897112;29;20466;-65
2022/11/23 12:01:47;;;;;;;6.68;2.25;;;;;;;;;;4911674;29;20518;-65
2022/11/23 12:04:16;;;;;;;6.60;2.67;;;;;;;;;;4911538;29;20072;-65
2022/11/23 12:06:49;;;;;;;5.72;3.03;;;;;;;;;;4896499;29;20079;-65
2022/11/23 12:09:17;;;;;;;6.13;2.60;;;;;;;;;;4896868;29;20036;-65
2022/11/23 12:11:44;;;;;;;9.88;1.85;;;;;;;;;;4895656;29;20076;-65
2022/11/23 12:14:12;;;;;;;3.47;1.70;;;;;;;;;;4896920;29;20076;-65
2022/11/23 12:16:50;;;;;;;5.70;1.70;;;;;;;;;;4896201;29;20048;-65
2022/11/23 12:19:55;;;;;;;7.63;1.70;;;;;;;;;;4897156;29;20489;-65
2022/11/23 12:22:35;;;;;;;5.15;2.00;;;;;;;;;;4912429;29;20532;-65
2022/11/23 12:25:01;;;;;;;7.70;2.05;;;;;;;;;;4897217;29;20045;-66
2022/11/23 12:27:35;;;;;;;3.83;1.90;;;;;;;;;;4897649;29;20044;-65
2022/11/23 12:30:01;;;;;;;9.30;3.42;;;;;;;;;;4897933;29;20045;-65
2022/11/23 12:32:43;;;;;;;6.30;2.47;;;;;;;;;;4897499;29;20121;-65
2022/11/23 12:35:19;;;;;;;9.18;2.83;;;;;;;;;;4897343;29;20071;-65
2022/11/23 12:37:45;;;;;;;5.28;2.22;;;;;;;;;;4897113;29;20465;-65
2022/11/23 12:40:36;;;;;;;2.95;1.35;;;;;;;;;;4896769;29;20458;-64
2022/11/23 12:43:09;;;;;;;2.22;1.20;;;;;;;;;;4911279;29;20097;-65
2022/11/23 12:45:59;;;;;;;4.93;1.52;;;;;;;;;;4910790;29;20139;-65
2022/11/23 12:48:30;;;;;;;5.88;1.88;;;;;;;;;;4889401;29;20091;-65
2022/11/23 12:51:05;;;;;;;7.10;1.90;;;;;;;;;;4911323;29;20140;-65
2022/11/23 12:53:40;;;;;;;3.38;1.08;;;;;;;;;;4899483;29;20573;-65
2022/11/23 12:56:12;;;;;;;5.50;1.42;;;;;;;;;;4898334;29;20080;-65
2022/11/23 12:58:41;;;;;;;5.95;1.63;;;;;;;;;;4898965;29;20068;-65
2022/11/23 13:01:13;;;;;;;4.97;1.58;;;;;;;;;;4899874;29;20127;-65
2022/11/23 13:03:51;;;;;;;3.60;1.40;;;;;;;;;;4900110;29;20432;-65
2022/11/23 13:06:36;;;;;;;5.85;1.73;;;;;;;;;;4913920;29;20085;-65
2022/11/23 13:09:21;;;;;;;6.20;2.50;;;;;;;;;;4900218;29;20445;-65
2022/11/23 13:11:48;;;;;;;4.28;1.52;;;;;;;;;;4899716;29;20053;-65
2022/11/23 13:14:29;;;;;;;5.57;1.40;;;;;;;;;;4899842;29;20501;-65
2022/11/23 13:16:58;;;;;;;4.53;1.13;;;;;;;;;;4899125;29;20044;-65
2022/11/23 13:19:30;;;;;;;4.47;1.58;;;;;;;;;;4899632;29;20085;-65
2022/11/23 13:21:57;;;;;;;7.53;1.88;;;;;;;;;;4900057;29;20474;-65
2022/11/23 13:24:25;;;;;;;4.15;1.52;;;;;;;;;;4900043;29;20040;-65
2022/11/23 13:27:11;;;;;;;5.30;1.50;;;;;;;;;;4899007;29;20100;-65
2022/11/23 13:29:50;;;;;;;4.32;1.35;;;;;;;;;;4870796;29;20106;-66
2022/11/23 13:32:35;;;;;;;5.22;1.38;;;;;;;;;;4913968;29;20041;-65
2022/11/23 13:35:01;;;;;;;2.80;1.20;;;;;;;;;;4899052;29;20049;-65
2022/11/23 13:37:28;;;;;;;5.90;1.60;;;;;;;;;;4899398;29;20045;-65
2022/11/23 13:39:57;;;;;;;4.57;1.40;;;;;;;;;;4899454;29;20104;-65
2022/11/23 13:42:25;;;;;;;3.17;1.33;;;;;;;;;;4898018;29;20091;-65
2022/11/23 13:45:18;;;;;;;3.38;1.08;;;;;;;;;;4897875;29;20049;-65
2022/11/23 13:48:13;;;;;;;5.80;2.33;;;;;;;;;;4877404;29;20064;-65
2022/11/23 13:51:00;;;;;;;3.25;1.10;;;;;;;;;;4899262;29;20128;-65
2022/11/23 13:53:34;;;;;;;5.57;1.25;;;;;;;;;;4899217;29;20498;-65
2022/11/23 13:56:00;;;;;;;;;;;;;;;;;;4899030;29;20557;-65
2022/11/23 13:58:27;;;;;;;2.85;1.20;;;;;;;;;;4899344;29;19923;-65
2022/11/23 14:00:55;;;;;;;5.20;1.15;;;;;;;;;;4899317;29;20505;-65
2022/11/23 14:03:40;;;;;;;2.65;1.40;;;;;;;;;;4898568;29;20049;-65
2022/11/23 14:06:17;;;;;;;4.50;1.90;;;;;;;;;;4897064;29;20482;-65
2022/11/23 14:08:44;;;;;;;5.30;2.40;;;;;;;;;;4899069;29;20510;-65
2022/11/23 14:11:12;;;;;;;4.03;1.30;;;;;;;;;;4897626;29;20454;-65
2022/11/23 14:13:39;;;;;;;2.70;1.23;;;;;;;;;;4897572;29;20096;-65
2022/11/23 14:16:10;;;;;;;2.85;1.42;;;;;;;;;;4897305;29;20048;-65
2022/11/23 14:18:51;;;;;;;3.72;1.85;;;;;;;;;;4897870;29;20041;-65
2022/11/23 14:21:28;;;;;;;7.68;2.17;;;;;;;;;;4899610;29;20044;-66
2022/11/23 14:24:11;;;;;;;2.85;1.30;;;;;;;;;;4913551;29;20045;-65
2022/11/23 14:26:41;;;;;;;2.78;1.30;;;;;;;;;;4897310;29;20053;-65
2022/11/23 14:29:19;;;;;;;3.38;1.40;;;;;;;;;;4898047;29;20211;-65
2022/11/23 14:31:58;;;;;;;4.50;1.20;;;;;;;;;;4898990;29;20044;-65
2022/11/23 14:34:31;;;;;;;4.82;1.80;;;;;;;;;;4899003;29;20048;-65
2022/11/23 14:36:58;;;;;;;4.35;1.85;;;;;;;;;;4914641;29;20070;-65
2022/11/23 14:39:45;;;;;;;4.60;1.20;;;;;;;;;;4898859;29;20045;-65
2022/11/23 14:42:14;;;;;;;2.75;1.33;;;;;;;;;;4883689;29;20414;-65
2022/11/23 14:44:41;;;;;;;4.78;1.40;;;;;;;;;;4898043;29;20414;-65
2022/11/23 14:47:08;;;;;;;4.53;1.55;;;;;;;;;;4899193;29;20044;-65
2022/11/23 14:49:35;;;;;;;2.85;1.35;;;;;;;;;;4898424;29;20052;-65
2022/11/23 14:52:02;;;;;;;4.43;1.30;;;;;;;;;;4897272;29;20100;-65
2022/11/23 14:54:29;;;;;;;3.22;1.50;;;;;;;;;;4898145;29;20053;-65
2022/11/23 14:57:01;;;;;;;2.85;1.65;;;;;;;;;;4912171;29;20051;-65
2022/11/23 14:59:31;;;;;;;4.20;1.35;;;;;;;;;;4898164;29;20390;-65
2022/11/23 15:01:59;;;;;;;3.53;1.23;;;;;;;;;;4898125;29;20052;-65
2022/11/23 15:04:35;;;;;;;4.93;1.60;;;;;;;;;;4898600;29;20044;-65
2022/11/23 15:07:05;;;;;;;3.03;1.52;;;;;;;;;;4896506;29;20051;-64